Time;durP1;ratioP1;P1;durP2;ratioP2;P2;SDS_P1;SDS_P2;PMS_P1;PMS_P2;Temp;Humidity;BMP_temperature;BMP_pressure;BME280_temperature;BME280_humidity;BME280_pressure;Samples;Min_cycle;Max_cycle;Signal;HPM_P1;HPM_P2
2022/04/14 00:00:23;;;;;;;8.30;6.60;;;;;;;13.56;100.00;95176.47;5099868;28;20210;-62
2022/04/14 00:02:49;;;;;;;10.40;7.40;;;;;;;13.45;100.00;95182.22;5099564;28;20185;-60
2022/04/14 00:05:14;;;;;;;10.00;7.47;;;;;;;13.50;100.00;95181.69;5100038;28;20249;-62
2022/04/14 00:07:40;;;;;;;12.03;7.10;;;;;;;13.58;100.00;95185.81;5099393;28;20172;-62
2022/04/14 00:10:06;;;;;;;10.43;7.37;;;;;;;13.53;100.00;95194.56;5099517;28;20184;-62
2022/04/14 00:12:31;;;;;;;10.73;7.53;;;;;;;13.50;100.00;95189.91;5099699;28;20198;-62
2022/04/14 00:14:57;;;;;;;9.87;7.73;;;;;;;13.50;100.00;95200.91;5099391;28;20184;-62
2022/04/14 00:17:23;;;;;;;9.97;8.07;;;;;;;13.44;100.00;95196.34;5099082;28;20209;-62
2022/04/14 00:19:48;;;;;;;9.97;7.97;;;;;;;13.39;100.00;95205.84;5099913;28;20175;-60
2022/04/14 00:22:13;;;;;;;11.73;8.23;;;;;;;13.40;100.00;95198.41;5099811;28;20176;-59
2022/04/14 00:24:39;;;;;;;12.80;8.33;;;;;;;13.32;100.00;95206.00;5098873;28;20203;-59
2022/04/14 00:27:04;;;;;;;12.23;8.60;;;;;;;13.36;100.00;95203.94;5099615;28;20171;-59
2022/04/14 00:29:30;;;;;;;9.40;8.40;;;;;;;13.35;100.00;95205.16;5099471;28;20180;-59
2022/04/14 00:31:55;;;;;;;13.67;8.23;;;;;;;13.26;100.00;95202.97;5098931;28;20184;-59
2022/04/14 00:34:21;;;;;;;12.63;8.73;;;;;;;13.26;100.00;95202.22;5099154;28;20181;-59
2022/04/14 00:36:46;;;;;;;10.17;8.10;;;;;;;13.38;100.00;95210.53;5098898;28;20178;-59
2022/04/14 00:39:11;;;;;;;16.67;11.57;;;;;;;13.28;100.00;95202.56;5099131;28;20194;-59
2022/04/14 00:41:40;;;;;;;16.27;11.83;;;;;;;13.26;100.00;95208.47;5098918;28;20186;-59
2022/04/14 00:44:05;;;;;;;11.67;9.43;;;;;;;13.19;100.00;95213.34;5098883;28;20216;-59
2022/04/14 00:46:31;;;;;;;12.83;9.00;;;;;;;13.18;100.00;95212.56;5099026;28;20192;-59
2022/04/14 00:48:57;;;;;;;10.13;8.40;;;;;;;13.15;100.00;95213.41;5098589;28;20219;-59
2022/04/14 00:51:23;;;;;;;11.67;8.73;;;;;;;13.16;100.00;95212.22;5098640;28;20206;-59
2022/04/14 00:53:48;;;;;;;14.33;8.90;;;;;;;13.19;100.00;95213.34;5098931;28;20276;-59
2022/04/14 00:56:14;;;;;;;14.13;9.67;;;;;;;13.17;100.00;95207.50;5098643;28;20283;-59
2022/04/14 00:58:40;;;;;;;13.60;9.70;;;;;;;13.10;100.00;95210.38;5098976;28;20203;-59
2022/04/14 01:01:06;;;;;;;12.53;9.60;;;;;;;13.20;100.00;95212.16;5098701;28;20188;-59
2022/04/14 01:03:33;;;;;;;11.57;9.27;;;;;;;13.20;100.00;95210.19;5098666;28;20233;-59
2022/04/14 01:05:59;;;;;;;11.17;9.63;;;;;;;13.19;100.00;95207.88;5098283;28;20189;-59
2022/04/14 01:08:27;;;;;;;12.07;8.90;;;;;;;13.04;100.00;95212.09;5098762;28;20176;-59
2022/04/14 01:10:54;;;;;;;12.37;10.00;;;;;;;13.21;100.00;95221.91;5097104;28;20633;-59
2022/04/14 01:13:20;;;;;;;13.20;9.50;;;;;;;13.01;100.00;95219.19;5098637;28;20190;-59
2022/04/14 01:15:46;;;;;;;12.67;9.17;;;;;;;12.95;100.00;95220.84;5098504;28;20180;-60
2022/04/14 01:18:12;;;;;;;13.23;9.40;;;;;;;12.95;100.00;95226.34;5098229;28;20222;-61
2022/04/14 01:20:41;;;;;;;11.93;9.83;;;;;;;13.03;100.00;95221.50;5098796;28;20284;-59
2022/04/14 01:23:08;;;;;;;14.43;9.93;;;;;;;13.04;100.00;95228.56;5098952;28;20178;-59
2022/04/14 01:25:35;;;;;;;13.47;10.23;;;;;;;12.91;100.00;95227.59;5098340;28;20215;-60
2022/04/14 01:28:02;;;;;;;15.60;10.63;;;;;;;12.92;100.00;95226.41;5098218;28;20657;-59
2022/04/14 01:30:28;;;;;;;12.70;10.33;;;;;;;13.00;100.00;95236.06;5098520;28;20184;-59
2022/04/14 01:32:54;;;;;;;15.30;11.67;;;;;;;13.09;100.00;95231.56;5098301;28;20172;-61
2022/04/14 01:35:19;;;;;;;14.07;10.90;;;;;;;13.05;100.00;95235.56;5098556;28;20188;-59
2022/04/14 01:37:45;;;;;;;14.13;10.17;;;;;;;13.00;100.00;95233.31;5116137;28;20176;-60
2022/04/14 01:40:11;;;;;;;13.03;10.17;;;;;;;12.90;100.00;95237.03;5097956;28;20275;-60
2022/04/14 01:42:36;;;;;;;14.13;10.57;;;;;;;12.89;100.00;95232.72;5097921;28;20277;-63
2022/04/14 01:45:02;;;;;;;13.13;9.47;;;;;;;12.93;100.00;95228.72;5098269;28;20241;-60
2022/04/14 01:47:28;;;;;;;12.20;9.57;;;;;;;12.95;100.00;95242.00;5098164;28;20181;-60
2022/04/14 01:49:53;;;;;;;13.50;9.60;;;;;;;12.96;100.00;95238.06;5097723;28;20486;-60
2022/04/14 01:52:18;;;;;;;13.50;9.73;;;;;;;12.95;100.00;95242.00;5098015;28;20191;-60
2022/04/14 01:54:44;;;;;;;13.60;10.10;;;;;;;12.94;100.00;95237.72;5097586;28;20188;-60
2022/04/14 01:57:09;;;;;;;13.57;10.23;;;;;;;12.78;100.00;95238.41;5098199;28;20271;-59
2022/04/14 01:59:35;;;;;;;12.27;9.93;;;;;;;12.75;100.00;95242.00;5097721;28;20216;-60
2022/04/14 02:02:00;;;;;;;11.73;10.13;;;;;;;12.77;100.00;95245.09;5098010;28;20184;-59
2022/04/14 02:04:26;;;;;;;11.50;9.90;;;;;;;12.86;100.00;95245.31;5097769;28;20257;-59
2022/04/14 02:06:51;;;;;;;13.33;10.50;;;;;;;12.89;100.00;95243.69;5097702;28;20191;-59
2022/04/14 02:09:16;;;;;;;12.50;10.30;;;;;;;12.95;100.00;95242.78;5115591;28;20245;-59
2022/04/14 02:11:42;;;;;;;13.70;10.20;;;;;;;12.73;100.00;95246.34;5097571;28;20192;-59
2022/04/14 02:14:07;;;;;;;13.37;9.63;;;;;;;12.85;100.00;95243.75;5097559;28;20187;-59
2022/04/14 02:16:32;;;;;;;13.87;9.53;;;;;;;12.68;100.00;95238.63;5097525;28;20238;-60
2022/04/14 02:18:57;;;;;;;12.97;10.13;;;;;;;12.61;100.00;95255.19;5097832;28;20282;-59
2022/04/14 02:21:23;;;;;;;12.27;9.03;;;;;;;12.58;100.00;95250.53;5097281;28;20221;-60
2022/04/14 02:23:49;;;;;;;12.63;10.00;;;;;;;12.57;100.00;95238.06;5097294;28;20200;-60
2022/04/14 02:26:16;;;;;;;14.43;9.63;;;;;;;12.49;100.00;95247.56;5097295;28;20215;-59
2022/04/14 02:28:41;;;;;;;13.27;10.70;;;;;;;12.50;100.00;95246.41;5097186;28;20201;-63
2022/04/14 02:31:06;;;;;;;13.10;9.33;;;;;;;12.47;100.00;95255.44;5097575;28;20179;-60
2022/04/14 02:33:32;;;;;;;12.87;9.23;;;;;;;12.46;100.00;95253.91;5097052;28;20191;-60
2022/04/14 02:35:57;;;;;;;13.10;9.73;;;;;;;12.41;100.00;95251.63;5097399;28;20211;-60
2022/04/14 02:38:22;;;;;;;11.87;9.33;;;;;;;12.42;100.00;95247.72;5097046;28;20270;-59
2022/04/14 02:40:48;;;;;;;14.60;10.43;;;;;;;12.39;100.00;95256.75;5097392;28;20195;-60
2022/04/14 02:43:13;;;;;;;11.73;9.90;;;;;;;12.39;100.00;95259.50;5096960;28;20183;-59
2022/04/14 02:45:38;;;;;;;13.53;10.47;;;;;;;12.45;100.00;95252.34;5097394;28;20213;-60
2022/04/14 02:48:04;;;;;;;14.50;10.37;;;;;;;12.46;100.00;95248.44;5097087;28;20529;-62
2022/04/14 02:50:29;;;;;;;13.03;9.90;;;;;;;12.41;100.00;95246.16;5097281;28;20180;-58
2022/04/14 02:52:55;;;;;;;14.40;10.33;;;;;;;12.40;100.00;95245.41;5097029;28;20214;-59
2022/04/14 02:55:21;;;;;;;12.70;9.60;;;;;;;12.40;100.00;95239.13;5097065;28;20198;-59
2022/04/14 02:57:48;;;;;;;13.47;9.47;;;;;;;12.33;100.00;95250.22;5096869;28;20195;-58
2022/04/14 03:00:14;;;;;;;13.17;9.83;;;;;;;12.38;100.00;95253.25;5097164;28;20179;-58
2022/04/14 03:02:40;;;;;;;15.73;9.77;;;;;;;12.34;100.00;95251.75;5097343;28;20236;-58
2022/04/14 03:05:06;;;;;;;11.07;9.07;;;;;;;12.27;100.00;95249.91;5096547;28;20290;-60
2022/04/14 03:07:32;;;;;;;12.90;9.70;;;;;;;12.26;100.00;95253.06;5096453;28;20198;-58
2022/04/14 03:09:58;;;;;;;11.43;9.13;;;;;;;12.22;100.00;95255.09;5096886;28;20266;-59
2022/04/14 03:12:23;;;;;;;11.80;9.03;;;;;;;12.23;100.00;95245.69;5096417;28;20232;-59
2022/04/14 03:14:49;;;;;;;11.93;9.93;;;;;;;12.15;100.00;95249.72;5096562;28;20191;-59
2022/04/14 03:17:15;;;;;;;12.97;9.00;;;;;;;12.16;100.00;95252.06;5096572;28;20194;-60
2022/04/14 03:19:40;;;;;;;13.37;9.50;;;;;;;12.17;100.00;95259.06;5096498;28;20232;-58
2022/04/14 03:22:06;;;;;;;11.87;8.70;;;;;;;12.15;100.00;95260.69;5096938;28;20676;-59
2022/04/14 03:24:31;;;;;;;14.00;8.67;;;;;;;12.10;100.00;95258.44;5096886;28;20213;-59
2022/04/14 03:26:56;;;;;;;12.97;9.23;;;;;;;12.06;100.00;95257.72;5095762;28;20276;-60
2022/04/14 03:29:22;;;;;;;11.60;9.30;;;;;;;12.04;100.00;95260.88;5096673;28;20196;-60
2022/04/14 03:31:47;;;;;;;13.97;9.00;;;;;;;12.02;100.00;95257.00;5096001;28;20187;-60
2022/04/14 03:34:12;;;;;;;11.00;8.70;;;;;;;11.96;100.00;95259.44;5096276;28;20236;-59
2022/04/14 03:36:38;;;;;;;11.60;9.03;;;;;;;11.94;100.00;95261.00;5096235;28;20186;-60
2022/04/14 03:39:04;;;;;;;14.23;9.30;;;;;;;11.93;100.00;95256.75;5096530;28;20204;-60
2022/04/14 03:41:29;;;;;;;13.67;9.00;;;;;;;11.96;100.00;95264.13;5096664;28;20180;-62
2022/04/14 03:43:54;;;;;;;14.30;9.40;;;;;;;12.02;100.00;95257.00;5096190;28;20208;-59
2022/04/14 03:46:20;;;;;;;11.07;9.17;;;;;;;12.06;100.00;95263.19;5095964;28;20187;-60
2022/04/14 03:48:46;;;;;;;11.53;8.57;;;;;;;12.01;100.00;95277.31;5096080;28;20290;-60
2022/04/14 03:51:14;;;;;;;9.77;8.50;;;;;;;12.00;100.00;95275.78;5095999;28;20182;-60
2022/04/14 03:53:40;;;;;;;11.83;9.33;;;;;;;12.00;100.00;95273.06;5095825;28;20190;-60
2022/04/14 03:56:05;;;;;;;12.27;9.67;;;;;;;12.11;100.00;95270.91;5095905;28;20188;-59
2022/04/14 03:58:30;;;;;;;10.43;9.30;;;;;;;12.06;100.00;95274.91;5095902;28;20198;-59
2022/04/14 04:00:55;;;;;;;12.43;9.97;;;;;;;12.16;100.00;95273.97;5095688;28;20195;-60
2022/04/14 04:03:22;;;;;;;13.97;11.03;;;;;;;12.16;100.00;95284.91;5095994;28;20184;-60
2022/04/14 04:05:47;;;;;;;12.50;10.47;;;;;;;12.22;100.00;95279.72;5095538;28;20206;-60
2022/04/14 04:08:13;;;;;;;20.53;16.20;;;;;;;12.27;100.00;95282.00;5096276;28;20179;-60
2022/04/14 04:10:38;;;;;;;15.60;12.10;;;;;;;12.25;100.00;95284.38;5096255;28;20180;-60
2022/04/14 04:13:04;;;;;;;12.67;10.93;;;;;;;12.27;100.00;95282.00;5095954;28;20186;-60
2022/04/14 04:15:29;;;;;;;12.17;9.83;;;;;;;12.24;100.00;95285.59;5095689;28;20183;-60
2022/04/14 04:17:54;;;;;;;13.93;10.43;;;;;;;12.18;100.00;95293.50;5096030;28;20175;-59
2022/04/14 04:20:20;;;;;;;12.63;10.20;;;;;;;12.18;100.00;95292.72;5096071;28;20190;-62
2022/04/14 04:22:46;;;;;;;13.73;9.90;;;;;;;12.09;100.00;95292.47;5095464;28;20176;-60
2022/04/14 04:25:11;;;;;;;12.97;9.50;;;;;;;12.10;100.00;95291.28;5095600;28;20231;-60
2022/04/14 04:27:37;;;;;;;11.50;10.30;;;;;;;12.09;100.00;95292.47;5095473;28;20186;-61
2022/04/14 04:30:04;;;;;;;13.63;10.10;;;;;;;12.05;100.00;95289.00;5095274;28;20192;-60
2022/04/14 04:32:33;;;;;;;17.10;11.00;;;;;;;12.16;100.00;95289.59;5095617;28;20188;-60
2022/04/14 04:34:59;;;;;;;13.17;10.63;;;;;;;12.21;100.00;95300.09;5095530;28;20183;-61
2022/04/14 04:37:24;;;;;;;13.87;10.93;;;;;;;12.23;100.00;95303.97;5095693;28;20229;-59
2022/04/14 04:39:49;;;;;;;15.37;10.77;;;;;;;12.30;100.00;95295.63;5095480;28;20196;-60
2022/04/14 04:42:15;;;;;;;19.90;13.27;;;;;;;12.38;100.00;95296.28;5095283;28;20176;-60
2022/04/14 04:44:40;;;;;;;20.00;11.10;;;;;;;12.46;100.00;95303.97;5097193;28;20215;-60
2022/04/14 04:47:05;;;;;;;20.13;11.07;;;;;;;12.81;100.00;95308.81;5099002;28;20184;-60
2022/04/14 04:49:31;;;;;;;14.70;10.30;;;;;;;12.69;100.00;95311.41;5098578;28;20283;-59
2022/04/14 04:51:57;;;;;;;13.10;10.40;;;;;;;13.30;100.00;95307.16;5098685;28;20189;-59
2022/04/14 04:54:22;;;;;;;12.70;10.73;;;;;;;13.73;100.00;95305.03;5098345;28;20180;-60
2022/04/14 04:56:47;;;;;;;14.23;11.10;;;;;;;14.09;100.00;95316.78;5099291;28;20187;-62
2022/04/14 04:59:13;;;;;;;13.30;10.20;;;;;;;14.45;100.00;95309.28;5098682;28;20195;-62
2022/04/14 05:01:38;;;;;;;13.27;10.30;;;;;;;14.71;100.00;95308.22;5098254;28;20186;-62
2022/04/14 05:04:04;;;;;;;14.80;9.60;;;;;;;14.93;100.00;95320.22;5098428;28;20229;-62
2022/04/14 05:06:29;;;;;;;12.90;9.30;;;;;;;15.03;100.00;95315.66;5098975;28;20189;-62
2022/04/14 05:08:54;;;;;;;13.17;9.40;;;;;;;15.35;100.00;95319.13;5098403;28;20188;-62
2022/04/14 05:11:20;;;;;;;10.93;8.23;;;;;;;16.01;100.00;95318.34;5098266;28;20217;-62
2022/04/14 05:13:45;;;;;;;10.23;7.67;;;;;;;16.42;100.00;95321.03;5098222;28;20217;-60
2022/04/14 05:16:11;;;;;;;13.13;8.60;;;;;;;17.12;100.00;95324.19;5098450;28;20189;-62
2022/04/14 05:18:36;;;;;;;9.50;7.83;;;;;;;17.39;100.00;95326.41;5098756;28;20183;-60
2022/04/14 05:21:02;;;;;;;9.50;7.70;;;;;;;17.72;100.00;95327.59;5098318;28;20283;-60
2022/04/14 05:23:27;;;;;;;9.23;7.77;;;;;;;18.23;95.92;95331.56;5098219;28;20211;-60
2022/04/14 05:25:54;;;;;;;10.80;7.47;;;;;;;18.57;91.77;95328.66;5098741;28;20211;-59
2022/04/14 05:28:20;;;;;;;11.80;8.40;;;;;;;18.99;89.25;95326.94;5098184;28;20211;-59
2022/04/14 05:30:45;;;;;;;13.47;8.27;;;;;;;19.36;85.91;95326.53;5098624;28;20183;-60
2022/04/14 05:33:12;;;;;;;12.97;8.10;;;;;;;19.76;83.68;95325.59;5099008;28;20191;-60
2022/04/14 05:35:38;;;;;;;17.95;8.98;;;;;;;19.66;82.13;95329.63;5097623;28;20945;-63
2022/04/14 05:38:05;;;;;;;12.13;9.07;;;;;;;20.05;81.08;95334.94;5098388;28;20184;-62
2022/04/14 05:40:30;;;;;;;12.03;9.23;;;;;;;20.17;78.63;95322.91;5098362;28;20297;-62
2022/04/14 05:42:55;;;;;;;11.23;8.37;;;;;;;20.92;76.46;95338.34;5097899;28;20214;-62
2022/04/14 05:45:21;;;;;;;9.30;7.77;;;;;;;21.45;74.90;95328.09;5097717;28;20290;-62
2022/04/14 05:47:46;;;;;;;11.77;7.93;;;;;;;21.54;74.44;95333.59;5097473;28;20176;-62
2022/04/14 05:50:12;;;;;;;11.67;7.63;;;;;;;21.72;72.80;95327.91;5097755;28;20184;-60
2022/04/14 05:52:38;;;;;;;11.33;7.97;;;;;;;22.33;69.96;95332.53;5098012;28;20191;-60
2022/04/14 05:55:04;;;;;;;10.30;7.73;;;;;;;22.52;68.31;95330.34;5097662;28;20196;-61
2022/04/14 05:57:29;;;;;;;11.40;8.10;;;;;;;22.99;65.35;95338.41;5096730;28;20203;-61
2022/04/14 05:59:56;;;;;;;11.57;8.43;;;;;;;23.51;63.58;95334.56;5098215;28;20203;-61
2022/04/14 06:02:21;;;;;;;9.77;7.87;;;;;;;23.99;60.67;95329.28;5115745;28;20180;-60
2022/04/14 06:04:46;;;;;;;11.50;8.50;;;;;;;23.92;60.61;95335.25;5097513;28;20203;-61
2022/04/14 06:07:12;;;;;;;10.30;8.20;;;;;;;24.16;58.99;95324.63;5098102;28;20182;-61
2022/04/14 06:09:37;;;;;;;9.70;7.90;;;;;;;24.86;56.28;95325.75;5097510;28;20176;-61
2022/04/14 06:12:02;;;;;;;10.90;8.10;;;;;;;25.13;55.29;95325.91;5097933;28;20240;-61
2022/04/14 06:14:30;;;;;;;8.03;7.10;;;;;;;25.32;54.00;95329.88;5097526;28;20184;-61
2022/04/14 06:16:55;;;;;;;8.90;7.60;;;;;;;25.64;52.81;95327.75;5097487;28;20184;-61
2022/04/14 06:19:21;;;;;;;10.30;7.50;;;;;;;25.83;51.43;95333.63;5097503;28;20516;-61
2022/04/14 06:21:46;;;;;;;9.43;8.20;;;;;;;26.30;50.29;95336.34;5097362;28;20183;-62
2022/04/14 06:24:11;;;;;;;9.80;7.63;;;;;;;26.29;49.36;95334.78;5097058;28;20240;-61
2022/04/14 06:26:37;;;;;;;8.73;7.40;;;;;;;26.48;49.33;95327.41;5097173;28;20184;-64
2022/04/14 06:29:02;;;;;;;8.70;7.63;;;;;;;27.13;46.72;95327.94;5097771;28;20207;-61
2022/04/14 06:31:27;;;;;;;9.47;7.00;;;;;;;27.13;46.49;95339.91;5096996;28;20180;-61
2022/04/14 06:33:53;;;;;;;8.30;7.37;;;;;;;28.33;44.23;95343.53;5097649;28;20274;-61
2022/04/14 06:36:18;;;;;;;8.67;7.20;;;;;;;29.04;42.03;95335.13;5097599;28;20197;-63
2022/04/14 06:38:43;;;;;;;8.93;7.20;;;;;;;29.65;39.96;95335.28;5096962;28;20187;-62
2022/04/14 06:41:09;;;;;;;8.80;7.03;;;;;;;30.41;38.91;95344.03;5097436;28;20228;-59
2022/04/14 06:43:34;;;;;;;7.80;6.97;;;;;;;30.89;37.43;95343.81;5096993;28;20180;-59
2022/04/14 06:46:03;;;;;;;9.77;7.85;;;;;;;31.53;35.51;95350.91;5096598;28;20178;-59
2022/04/14 06:48:30;;;;;;;10.73;7.60;;;;;;;31.59;35.92;95351.56;5096964;28;20184;-57
2022/04/14 06:50:55;;;;;;;10.70;7.30;;;;;;;31.71;35.22;95349.28;5096838;28;20172;-57
2022/04/14 06:53:20;;;;;;;11.10;7.45;;;;;;;31.70;35.75;95348.53;5114853;28;20256;-62
2022/04/14 06:55:48;;;;;;;10.55;7.55;;;;;;;32.14;34.99;95353.28;5096456;28;20180;-62
2022/04/14 06:58:13;;;;;;;11.18;7.00;;;;;;;32.69;33.06;95349.25;5096669;28;20206;-61
2022/04/14 07:00:39;;;;;;;7.68;6.90;;;;;;;33.08;32.94;95351.94;5114521;28;20632;-61
2022/04/14 07:03:04;;;;;;;9.05;7.50;;;;;;;33.24;32.59;95345.06;5096589;28;20180;-62
2022/04/14 07:05:30;;;;;;;8.65;7.53;;;;;;;33.62;31.63;95346.13;5114462;28;20218;-56
2022/04/14 07:07:55;;;;;;;8.40;7.50;;;;;;;34.16;30.44;95353.66;5095433;28;20294;-63
2022/04/14 07:10:21;;;;;;;11.45;7.57;;;;;;;34.57;30.38;95344.19;5096467;28;20184;-64
2022/04/14 07:12:46;;;;;;;9.27;7.85;;;;;;;34.18;30.13;95356.69;5096508;28;20651;-63
2022/04/14 07:15:12;;;;;;;11.75;8.38;;;;;;;34.40;30.31;95355.28;5096395;28;20214;-64
2022/04/14 07:17:38;;;;;;;9.18;8.27;;;;;;;34.38;29.67;95353.03;5096451;28;20256;-63
2022/04/14 07:20:05;;;;;;;10.95;8.50;;;;;;;35.16;29.04;95357.00;5096720;28;20188;-64
2022/04/14 07:22:40;;;;;;;13.55;9.20;;;;;;;35.02;28.73;95353.59;5096219;28;20279;-56
2022/04/14 07:25:06;;;;;;;9.55;8.40;;;;;;;35.28;28.30;95352.50;5096424;28;20609;-62
2022/04/14 07:27:31;;;;;;;9.73;8.25;;;;;;;35.30;28.78;95355.53;5096082;28;20199;-63
2022/04/14 07:29:56;;;;;;;9.75;8.75;;;;;;;36.22;26.83;95352.75;5096839;28;20187;-63
2022/04/14 07:32:22;;;;;;;13.23;8.38;;;;;;;36.38;27.52;95360.69;5096115;28;20255;-63
2022/04/14 07:34:47;;;;;;;9.63;8.63;;;;;;;35.85;26.87;95367.84;5114134;28;20636;-60
2022/04/14 07:37:12;;;;;;;11.80;8.30;;;;;;;37.15;26.05;95362.59;5097012;28;20187;-60
2022/04/14 07:39:38;;;;;;;11.80;8.73;;;;;;;36.96;25.50;95368.03;5096186;28;20184;-59
2022/04/14 07:42:03;;;;;;;11.38;8.93;;;;;;;37.57;25.33;95368.38;5095909;28;20224;-62
2022/04/14 07:44:28;;;;;;;10.20;8.23;;;;;;;38.20;24.38;95367.41;5096158;28;20200;-60
2022/04/14 07:46:54;;;;;;;11.48;8.85;;;;;;;37.94;24.17;95373.75;5095809;28;20228;-59
2022/04/14 07:49:19;;;;;;;12.68;8.73;;;;;;;37.51;24.68;95371.47;5096074;28;20192;-59
2022/04/14 07:51:44;;;;;;;10.60;8.90;;;;;;;37.89;23.77;95366.19;5095892;28;20274;-59
2022/04/14 07:54:10;;;;;;;10.80;9.25;;;;;;;38.38;23.99;95373.91;5096063;28;20311;-59
2022/04/14 07:56:36;;;;;;;14.82;9.68;;;;;;;38.44;23.82;95363.72;5113750;28;20180;-58
2022/04/14 07:59:01;;;;;;;10.65;9.57;;;;;;;38.01;24.07;95361.50;5096422;28;20199;-63
2022/04/14 08:01:27;;;;;;;12.48;9.77;;;;;;;37.35;24.03;95364.38;5095841;28;20215;-57
2022/04/14 08:03:52;;;;;;;12.07;10.07;;;;;;;36.98;24.49;95367.44;5096320;28;20693;-62
2022/04/14 08:06:18;;;;;;;13.52;10.02;;;;;;;36.56;25.26;95378.69;5095646;28;20178;-62
2022/04/14 08:08:43;;;;;;;12.98;10.02;;;;;;;36.14;24.94;95377.66;5096422;28;20183;-63
2022/04/14 08:11:10;;;;;;;12.75;10.57;;;;;;;36.81;24.42;95379.50;5096141;28;20172;-62
2022/04/14 08:13:38;;;;;;;13.18;10.48;;;;;;;36.88;24.47;95381.56;5095990;28;20274;-62
2022/04/14 08:16:09;;;;;;;12.88;9.98;;;;;;;36.72;24.63;95387.91;5095229;28;20192;-62
2022/04/14 08:18:39;;;;;;;14.57;10.45;;;;;;;37.62;24.34;95381.69;5096224;28;20176;-64
2022/04/14 08:21:06;;;;;;;13.50;10.13;;;;;;;37.59;23.41;95388.50;5099324;28;20183;-62
2022/04/14 08:23:32;;;;;;;11.38;10.02;;;;;;;37.77;23.59;95390.88;5099138;28;20206;-62
2022/04/14 08:25:58;;;;;;;14.85;11.27;;;;;;;37.15;23.77;95388.25;5098942;28;20219;-62
2022/04/14 08:28:23;;;;;;;14.05;10.82;;;;;;;37.60;23.82;95395.72;5099093;28;20180;-62
2022/04/14 08:30:49;;;;;;;11.50;9.57;;;;;;;38.10;23.20;95385.81;5098846;28;20188;-62
2022/04/14 08:33:16;;;;;;;14.77;11.05;;;;;;;38.49;22.91;95390.56;5099518;28;20636;-62
2022/04/14 08:35:42;;;;;;;13.07;10.02;;;;;;;38.74;22.85;95391.19;5098889;28;20633;-58
2022/04/14 08:38:08;;;;;;;12.82;10.60;;;;;;;38.30;23.02;95393.97;5098934;28;20180;-59
2022/04/14 08:40:39;;;;;;;16.00;11.18;;;;;;;38.05;23.14;95390.41;5098852;28;20241;-59
2022/04/14 08:43:06;;;;;;;16.75;11.13;;;;;;;37.85;22.98;95394.41;5098844;28;20183;-59
2022/04/14 08:45:40;;;;;;;14.55;9.70;;;;;;;38.58;22.70;95382.06;5098579;28;20264;-59
2022/04/14 08:48:05;;;;;;;18.73;10.45;;;;;;;37.55;23.59;95400.34;5098969;28;20184;-59
2022/04/14 08:50:32;;;;;;;15.80;10.27;;;;;;;37.66;23.71;95397.06;5098907;28;20191;-59
2022/04/14 08:52:58;;;;;;;12.80;10.05;;;;;;;37.72;23.47;95399.66;5116710;28;20247;-59
2022/04/14 08:55:24;;;;;;;13.20;10.30;;;;;;;37.11;23.98;95407.84;5099068;28;20266;-63
2022/04/14 08:57:49;;;;;;;13.27;10.63;;;;;;;37.28;23.82;95396.53;5098644;28;20184;-59
2022/04/14 09:00:16;;;;;;;13.10;10.20;;;;;;;37.71;23.79;95401.75;5098553;28;20205;-59
2022/04/14 09:02:46;;;;;;;13.32;9.77;;;;;;;38.42;22.51;95403.53;5098306;28;20193;-60
2022/04/14 09:05:17;;;;;;;12.23;10.40;;;;;;;37.74;23.54;95403.44;5098225;28;20203;-58
2022/04/14 09:07:46;;;;;;;14.30;10.27;;;;;;;37.81;23.81;95394.06;5098162;28;20183;-58
2022/04/14 09:10:11;;;;;;;12.68;10.45;;;;;;;37.40;23.78;95400.47;5098260;28;20195;-58
2022/04/14 09:12:37;;;;;;;12.57;10.48;;;;;;;38.22;22.76;95404.72;5098668;28;20585;-59
2022/04/14 09:15:04;;;;;;;13.68;10.05;;;;;;;38.27;22.52;95400.84;5098600;28;20290;-62
2022/04/14 09:17:29;;;;;;;11.63;9.27;;;;;;;37.78;23.04;95395.22;5098253;28;20188;-61
2022/04/14 09:19:55;;;;;;;14.68;9.85;;;;;;;37.46;23.50;95389.56;5098259;28;20179;-61
2022/04/14 09:22:23;;;;;;;12.77;9.23;;;;;;;37.26;23.85;95390.69;5098345;28;20676;-62
2022/04/14 09:24:54;;;;;;;12.18;9.82;;;;;;;36.79;23.95;95395.66;5098007;28;20308;-62
2022/04/14 09:27:29;;;;;;;13.38;10.65;;;;;;;36.84;24.20;95401.16;5098339;28;20543;-64
2022/04/14 09:29:57;;;;;;;12.95;10.48;;;;;;;36.78;23.72;95394.94;5098034;28;20186;-62
2022/04/14 09:32:34;;;;;;;12.45;10.05;;;;;;;36.98;23.74;95399.56;5097324;28;20183;-60
2022/04/14 09:35:05;;;;;;;11.13;9.98;;;;;;;37.12;23.83;95397.97;5098053;28;20200;-60
2022/04/14 09:37:31;;;;;;;12.55;10.60;;;;;;;37.28;23.84;95387.25;5097791;28;20236;-60
2022/04/14 09:39:59;;;;;;;11.55;9.27;;;;;;;37.62;23.14;95393.84;5115958;28;20176;-59
2022/04/14 09:42:27;;;;;;;10.75;9.23;;;;;;;38.00;22.83;95399.97;5098267;28;20184;-63
2022/04/14 09:44:53;;;;;;;12.25;9.75;;;;;;;37.48;22.29;95398.31;5098262;28;20214;-63
2022/04/14 09:47:37;;;;;;;14.25;10.77;;;;;;;37.49;23.10;95396.19;5097968;28;20187;-62
2022/04/14 09:50:03;;;;;;;12.23;10.38;;;;;;;37.18;23.28;95387.13;5098048;28;20222;-59
2022/04/14 09:52:28;;;;;;;10.98;8.52;;;;;;;35.78;23.75;95388.53;5097531;28;20184;-59
2022/04/14 09:55:07;;;;;;;10.40;8.75;;;;;;;36.18;24.13;95393.00;5097575;28;20175;-59
2022/04/14 09:57:32;;;;;;;11.77;8.30;;;;;;;36.77;23.67;95386.97;5098026;28;20191;-60
2022/04/14 09:59:58;;;;;;;11.68;7.75;;;;;;;37.35;22.58;95398.59;5097481;28;20179;-59
2022/04/14 10:02:23;;;;;;;9.55;7.90;;;;;;;38.54;21.88;95384.59;5097684;28;20183;-60
2022/04/14 10:04:49;;;;;;;9.95;8.48;;;;;;;37.02;22.79;95388.50;5097239;28;20215;-58
2022/04/14 10:07:18;;;;;;;11.40;9.38;;;;;;;36.92;23.14;95384.75;5098078;28;20207;-59
2022/04/14 10:09:45;;;;;;;10.18;8.13;;;;;;;36.60;23.55;95382.63;5097992;28;20324;-59
2022/04/14 10:12:20;;;;;;;11.10;8.07;;;;;;;36.74;23.72;95385.25;5097419;28;20319;-61
2022/04/14 10:15:08;;;;;;;8.38;6.75;;;;;;;36.57;23.85;95375.22;5097691;28;20705;-62
2022/04/14 10:17:37;;;;;;;8.90;8.00;;;;;;;37.17;22.99;95379.88;5097609;28;20279;-61
2022/04/14 10:20:05;;;;;;;10.10;7.57;;;;;;;38.02;22.10;95380.13;5097052;28;20214;-63
2022/04/14 10:22:31;;;;;;;9.25;6.57;;;;;;;37.90;22.18;95376.28;5097499;28;20262;-60
2022/04/14 10:24:57;;;;;;;8.25;7.15;;;;;;;38.63;21.16;95372.44;5096808;28;20262;-61
2022/04/14 10:27:22;;;;;;;11.63;7.38;;;;;;;37.98;21.61;95379.81;5097002;28;20597;-60
2022/04/14 10:29:49;;;;;;;10.40;8.40;;;;;;;38.01;21.95;95377.91;5097101;28;20183;-58
2022/04/14 10:32:14;;;;;;;9.48;8.48;;;;;;;36.68;22.68;95374.06;5097225;28;20184;-58
2022/04/14 10:34:41;;;;;;;9.02;8.13;;;;;;;35.93;24.41;95366.50;5097350;28;20549;-58
2022/04/14 10:37:15;;;;;;;9.35;8.23;;;;;;;36.56;23.74;95370.13;5096880;28;20679;-58
2022/04/14 10:39:46;;;;;;;12.00;8.10;;;;;;;36.86;23.47;95372.84;5096806;28;20574;-58
2022/04/14 10:42:15;;;;;;;10.60;8.25;;;;;;;37.82;22.14;95372.75;5096969;28;20706;-58
2022/04/14 10:44:49;;;;;;;9.15;7.32;;;;;;;36.82;23.50;95375.34;5097016;28;20208;-59
2022/04/14 10:47:55;;;;;;;9.57;7.70;;;;;;;36.75;22.33;95376.16;5097227;28;20701;-61
2022/04/14 10:50:26;;;;;;;10.52;7.70;;;;;;;36.46;23.33;95374.91;5096851;28;20268;-61
2022/04/14 10:53:16;;;;;;;9.85;7.75;;;;;;;36.66;22.65;95368.16;5097492;28;20282;-60
2022/04/14 10:55:44;;;;;;;10.00;8.90;;;;;;;36.58;23.16;95378.84;5096675;28;20755;-61
2022/04/14 10:58:28;;;;;;;11.32;8.30;;;;;;;36.58;23.50;95370.31;5096681;28;20194;-61
2022/04/14 11:00:54;;;;;;;11.05;8.65;;;;;;;35.92;24.15;95372.78;5096719;28;20184;-61
2022/04/14 11:03:20;;;;;;;11.25;8.00;;;;;;;36.31;23.86;95372.88;5096506;28;20194;-61
2022/04/14 11:05:50;;;;;;;10.07;8.05;;;;;;;36.49;23.42;95365.22;5096506;28;20594;-59
2022/04/14 11:08:29;;;;;;;11.75;7.75;;;;;;;36.22;23.31;95364.91;5096480;28;20179;-59
2022/04/14 11:11:10;;;;;;;9.15;8.10;;;;;;;36.74;22.98;95362.47;5096786;28;20274;-59
2022/04/14 11:13:50;;;;;;;10.00;8.00;;;;;;;35.03;24.39;95365.72;5096526;28;20211;-59
2022/04/14 11:16:42;;;;;;;9.35;8.23;;;;;;;33.93;26.00;95369.03;5096236;28;20274;-59